Time;durP1;ratioP1;P1;durP2;ratioP2;P2;SDS_P1;SDS_P2;PMS_P1;PMS_P2;Temp;Humidity;BMP_temperature;BMP_pressure;BME280_temperature;BME280_humidity;BME280_pressure;Samples;Min_cycle;Max_cycle;Signal;HPM_P1;HPM_P2
2022/09/14 00:00:06;;;;;;;;;;;13.30;99.90;;;;;;5073133;28;19921;-64
2022/09/14 00:02:31;;;;;;;;;;;13.20;99.90;;;;;;5071142;28;20003;-64
2022/09/14 00:04:57;;;;;;;;;;;13.30;99.90;;;;;;5072348;28;20011;-56
2022/09/14 00:07:22;;;;;;;;;;;13.30;99.90;;;;;;5073092;28;19916;-56
2022/09/14 00:09:50;;;;;;;;;;;13.30;99.90;;;;;;5073141;28;19927;-56
2022/09/14 00:12:15;;;;;;;;;;;13.30;99.90;;;;;;5072852;28;19978;-57
2022/09/14 00:14:41;;;;;;;;;;;13.30;99.90;;;;;;5073096;28;19928;-56
2022/09/14 00:17:06;;;;;;;;;;;13.40;99.90;;;;;;5073411;28;19920;-56
2022/09/14 00:19:32;;;;;;;;;;;13.40;99.90;;;;;;5071730;28;19920;-56
2022/09/14 00:21:58;;;;;;;;;;;13.40;99.90;;;;;;5055910;28;19931;-56
2022/09/14 00:24:25;;;;;;;;;;;13.40;99.90;;;;;;5073259;28;20396;-56
2022/09/14 00:26:51;;;;;;;;;;;13.50;99.90;;;;;;5055307;28;19963;-56
2022/09/14 00:29:16;;;;;;;;;;;13.50;99.90;;;;;;5073135;28;19967;-56
2022/09/14 00:31:42;;;;;;;;;;;13.50;99.90;;;;;;5072162;28;19927;-56
2022/09/14 00:34:10;;;;;;;;;;;13.50;99.90;;;;;;5072217;28;20014;-56
2022/09/14 00:36:40;;;;;;;;;;;13.60;99.90;;;;;;5071560;28;20489;-57
2022/09/14 00:39:06;;;;;;;;;;;13.60;99.90;;;;;;5068095;28;19924;-56
2022/09/14 00:41:34;;;;;;;;;;;13.60;99.90;;;;;;5072995;28;19928;-56
2022/09/14 00:44:02;;;;;;;;;;;13.60;99.90;;;;;;5055111;28;19930;-56
2022/09/14 00:46:34;;;;;;;;;;;13.60;99.90;;;;;;5072949;28;19946;-56
2022/09/14 00:49:01;;;;;;;;;;;13.60;99.90;;;;;;5063813;28;19924;-56
2022/09/14 00:51:28;;;;;;;;;;;13.60;99.90;;;;;;5071497;28;19927;-56
2022/09/14 00:53:54;;;;;;;;;;;13.70;99.90;;;;;;5072585;28;19928;-56
2022/09/14 00:56:20;;;;;;;;;;;13.60;99.90;;;;;;5072554;28;19924;-56
2022/09/14 00:58:48;;;;;;;;;;;13.70;99.90;;;;;;5054791;28;19928;-56
2022/09/14 01:01:14;;;;;;;;;;;13.70;99.90;;;;;;5072464;28;19921;-56
2022/09/14 01:03:39;;;;;;;;;;;13.70;99.90;;;;;;5072394;28;19921;-57
2022/09/14 01:06:23;;;;;;;;;;;13.70;99.90;;;;;;5072887;28;20170;-56
2022/09/14 01:09:07;;;;;;;;;;;13.80;99.90;;;;;;5072259;28;20015;-56
2022/09/14 01:11:36;;;;;;;;;;;13.70;99.90;;;;;;5054694;28;20018;-56
2022/09/14 01:14:20;;;;;;;;;;;13.70;99.90;;;;;;5072005;28;20339;-57
2022/09/14 01:16:49;;;;;;;;;;;13.70;99.90;;;;;;5067895;28;19972;-57
2022/09/14 01:19:29;;;;;;;;;;;13.60;99.90;;;;;;5068880;28;19920;-56
2022/09/14 01:21:57;;;;;;;;;;;13.60;99.90;;;;;;5072508;28;19927;-56
2022/09/14 01:24:32;;;;;;;;;;;13.60;99.90;;;;;;5072500;28;19925;-56
2022/09/14 01:26:57;;;;;;;;;;;13.60;99.90;;;;;;5072268;28;19947;-56
2022/09/14 01:29:29;;;;;;;;;;;13.90;99.90;;;;;;5072316;28;19924;-56
2022/09/14 01:31:55;;;;;;;;;;;13.50;99.90;;;;;;5071835;28;19920;-56
2022/09/14 01:34:26;;;;;;;;;;;13.40;99.90;;;;;;5072517;28;20384;-56
2022/09/14 01:36:56;;;;;;;;;;;13.50;99.90;;;;;;5072003;28;20397;-56
2022/09/14 01:39:22;;;;;;;;;;;13.40;99.90;;;;;;5071551;28;19927;-56
2022/09/14 01:41:48;;;;;;;;;;;13.40;99.90;;;;;;5072584;28;19920;-56
2022/09/14 01:44:17;;;;;;;;;;;13.40;99.90;;;;;;5072432;28;19920;-56
2022/09/14 01:46:45;;;;;;;;;;;13.40;99.90;;;;;;5066045;28;19921;-56
2022/09/14 01:49:13;;;;;;;;;;;13.30;99.90;;;;;;5068477;28;19920;-56
2022/09/14 01:51:44;;;;;;;;;;;13.30;99.90;;;;;;5072249;28;19921;-56
2022/09/14 01:54:15;;;;;;;;;;;13.30;99.90;;;;;;5072245;28;20358;-56
2022/09/14 01:56:45;;;;;;;;;;;13.30;99.90;;;;;;5071396;28;20010;-56
2022/09/14 01:59:17;;;;;;;;;;;13.30;99.90;;;;;;5053763;28;19921;-56
2022/09/14 02:01:48;;;;;;;;;;;13.40;99.90;;;;;;5060289;28;19927;-56
2022/09/14 02:04:16;;;;;;;;;;;13.40;99.90;;;;;;5072143;28;19920;-56
2022/09/14 02:06:44;;;;;;;;;;;13.40;99.90;;;;;;5071684;28;19941;-56
2022/09/14 02:09:10;;;;;;;;;;;13.40;99.90;;;;;;5072233;28;20263;-56
2022/09/14 02:11:37;;;;;;;;;;;13.40;99.90;;;;;;5072008;28;20459;-56
2022/09/14 02:14:02;;;;;;;;;;;13.40;99.90;;;;;;5072034;28;20270;-56
2022/09/14 02:16:28;;;;;;;;;;;13.50;99.90;;;;;;5070017;28;19920;-56
2022/09/14 02:18:54;;;;;;;;;;;13.40;99.90;;;;;;5065266;28;19920;-56
2022/09/14 02:21:25;;;;;;;;;;;13.40;99.90;;;;;;5075546;28;19924;-56
2022/09/14 02:23:50;;;;;;;;;;;13.30;99.90;;;;;;5075292;28;20436;-56
2022/09/14 02:26:17;;;;;;;;;;;13.30;99.90;;;;;;5075231;28;19924;-56
2022/09/14 02:28:43;;;;;;;;;;;13.30;99.90;;;;;;5075495;28;19982;-56
2022/09/14 02:31:38;;;;;;;;;;;13.40;99.90;;;;;;5074547;28;19920;-56
2022/09/14 02:34:06;;;;;;;;;;;13.30;99.90;;;;;;5044137;28;19990;-56
2022/09/14 02:36:42;;;;;;;;;;;13.30;99.90;;;;;;5074677;28;19920;-56
2022/09/14 02:39:07;;;;;;;;;;;13.30;99.90;;;;;;5070507;28;20370;-56
2022/09/14 02:41:36;;;;;;;;;;;13.40;99.90;;;;;;5075463;28;19932;-56
2022/09/14 02:44:06;;;;;;;;;;;13.40;99.90;;;;;;5075561;28;19973;-56
2022/09/14 02:46:31;;;;;;;;;;;13.30;99.90;;;;;;5071878;28;19920;-56
2022/09/14 02:49:03;;;;;;;;;;;13.30;99.90;;;;;;5075071;28;19920;-56
2022/09/14 02:51:46;;;;;;;;;;;13.40;99.90;;;;;;5075250;28;19920;-56
2022/09/14 02:54:16;;;;;;;;;;;13.40;99.90;;;;;;5075410;28;20275;-56
2022/09/14 02:56:43;;;;;;;;;;;13.40;99.90;;;;;;5075179;28;19927;-56
2022/09/14 02:59:09;;;;;;;;;;;13.40;99.90;;;;;;5075280;28;19920;-56
2022/09/14 03:01:35;;;;;;;;;;;13.40;99.90;;;;;;5074705;28;19953;-56
2022/09/14 03:04:00;;;;;;;;;;;13.50;99.90;;;;;;5074738;28;19960;-56
2022/09/14 03:06:26;;;;;;;;;;;13.50;99.90;;;;;;5074654;28;19928;-64
2022/09/14 03:08:52;;;;;;;;;;;13.50;99.90;;;;;;5074618;28;19920;-59
2022/09/14 03:11:17;;;;;;;;;;;13.50;99.90;;;;;;5074644;28;19921;-57
2022/09/14 03:13:43;;;;;;;;;;;13.50;99.90;;;;;;5074886;28;19972;-58
2022/09/14 03:16:10;;;;;;;;;;;13.50;99.90;;;;;;5067445;28;19939;-58
2022/09/14 03:18:36;;;;;;;;;;;13.50;99.90;;;;;;5074796;28;19995;-56
2022/09/14 03:21:03;;;;;;;;;;;13.50;99.90;;;;;;5074679;28;19932;-57
2022/09/14 03:23:29;;;;;;;;;;;13.50;99.90;;;;;;5074415;28;19920;-56
2022/09/14 03:25:54;;;;;;;;;;;13.60;99.90;;;;;;5074231;28;19927;-57
2022/09/14 03:28:20;;;;;;;;;;;13.60;99.90;;;;;;5056501;28;19938;-57
2022/09/14 03:30:46;;;;;;;;;;;13.60;99.90;;;;;;5064175;28;19929;-56
2022/09/14 03:33:14;;;;;;;;;;;13.60;99.90;;;;;;5071436;28;19960;-56
2022/09/14 03:35:39;;;;;;;;;;;13.60;99.90;;;;;;5063997;28;19920;-56
2022/09/14 03:38:05;;;;;;;;;;;13.60;99.90;;;;;;5074164;28;19927;-56
2022/09/14 03:40:31;;;;;;;;;;;13.70;99.90;;;;;;5073091;28;20380;-57
2022/09/14 03:42:56;;;;;;;;;;;13.60;99.90;;;;;;5073744;28;19924;-56
2022/09/14 03:45:22;;;;;;;;;;;13.70;99.90;;;;;;5074178;28;19920;-57
2022/09/14 03:47:48;;;;;;;;;;;13.70;99.90;;;;;;5073727;28;19920;-56
2022/09/14 03:50:14;;;;;;;;;;;13.70;99.90;;;;;;5073724;28;19993;-57
2022/09/14 03:52:39;;;;;;;;;;;13.80;99.90;;;;;;5074356;28;19923;-61
2022/09/14 03:55:06;;;;;;;;;;;13.80;99.90;;;;;;5073835;28;20291;-62
2022/09/14 03:57:31;;;;;;;;;;;13.80;99.90;;;;;;5073676;28;19928;-64
2022/09/14 03:59:57;;;;;;;;;;;13.80;99.90;;;;;;5073392;28;19924;-65
2022/09/14 04:02:23;;;;;;;;;;;13.80;99.90;;;;;;5074014;28;19924;-57
2022/09/14 04:04:49;;;;;;;;;;;13.80;99.90;;;;;;5055398;28;19967;-59
2022/09/14 04:07:15;;;;;;;;;;;13.90;99.90;;;;;;5073542;28;19970;-59
2022/09/14 04:09:41;;;;;;;;;;;13.90;99.90;;;;;;5072442;28;20370;-62
2022/09/14 04:12:07;;;;;;;;;;;13.90;99.90;;;;;;5069260;28;19928;-61
2022/09/14 04:14:32;;;;;;;;;;;13.90;99.90;;;;;;5073545;28;19950;-59
2022/09/14 04:16:58;;;;;;;;;;;13.90;99.90;;;;;;5073015;28;20002;-58
2022/09/14 04:19:23;;;;;;;;;;;13.90;99.90;;;;;;5073123;28;19924;-59
2022/09/14 04:21:49;;;;;;;;;;;13.90;99.90;;;;;;5073252;28;19920;-58
2022/09/14 04:24:14;;;;;;;;;;;13.90;99.90;;;;;;5073703;28;19969;-65
2022/09/14 04:26:40;;;;;;;;;;;13.90;99.90;;;;;;5072584;28;19926;-65
2022/09/14 04:29:06;;;;;;;;;;;14.00;99.90;;;;;;5073137;28;20007;-57
2022/09/14 04:31:31;;;;;;;;;;;14.00;99.90;;;;;;5071771;28;19926;-61
2022/09/14 04:33:57;;;;;;;;;;;13.90;99.90;;;;;;5072518;28;19925;-60
2022/09/14 04:36:29;;;;;;;;;;;14.00;99.90;;;;;;5073215;28;19932;-62
2022/09/14 04:38:56;;;;;;;;;;;14.00;99.90;;;;;;5062798;28;19924;-59
2022/09/14 04:41:22;;;;;;;;;;;13.90;99.90;;;;;;5057615;28;19983;-59
2022/09/14 04:43:51;;;;;;;;;;;13.90;99.90;;;;;;5057702;28;20374;-61
2022/09/14 04:46:19;;;;;;;;;;;14.00;99.90;;;;;;5065725;28;19921;-59
2022/09/14 04:48:45;;;;;;;;;;;13.90;99.90;;;;;;5055301;28;19924;-59
2022/09/14 04:51:18;;;;;;;;;;;14.00;99.90;;;;;;5057199;28;19927;-60
2022/09/14 04:53:48;;;;;;;;;;;14.00;99.90;;;;;;5054896;28;19926;-64
2022/09/14 04:56:14;;;;;;;;;;;14.00;99.90;;;;;;5044415;28;19921;-64
2022/09/14 04:58:43;;;;;;;;;;;14.00;99.90;;;;;;5056017;28;20290;-63
2022/09/14 05:01:11;;;;;;;;;;;13.90;99.90;;;;;;5055977;28;19924;-65
2022/09/14 05:03:40;;;;;;;;;;;14.00;99.90;;;;;;5052908;28;19931;-65
2022/09/14 05:06:07;;;;;;;;;;;14.00;99.90;;;;;;5053041;28;20318;-65
2022/09/14 05:08:35;;;;;;;;;;;14.00;99.90;;;;;;5053536;28;20046;-65
2022/09/14 05:11:01;;;;;;;;;;;14.00;99.90;;;;;;5054236;28;19924;-64
2022/09/14 05:13:26;;;;;;;;;;;14.10;99.90;;;;;;5056256;28;19931;-64
2022/09/14 05:15:52;;;;;;;;;;;14.00;99.90;;;;;;5057795;28;20389;-63
2022/09/14 05:18:17;;;;;;;;;;;14.00;99.90;;;;;;5059681;28;19920;-64
2022/09/14 05:20:43;;;;;;;;;;;14.00;99.90;;;;;;5051990;28;20389;-64
2022/09/14 05:23:08;;;;;;;;;;;14.00;99.90;;;;;;5054874;28;19925;-57
2022/09/14 05:25:34;;;;;;;;;;;14.00;99.90;;;;;;5054858;28;19960;-60
2022/09/14 05:27:59;;;;;;;;;;;14.10;99.90;;;;;;5067344;28;19970;-57
2022/09/14 05:30:25;;;;;;;;;;;14.10;99.90;;;;;;5065302;28;20662;-56
2022/09/14 05:32:51;;;;;;;;;;;14.10;99.90;;;;;;5065560;28;19926;-56
2022/09/14 05:35:17;;;;;;;;;;;14.10;99.90;;;;;;5064840;28;19934;-57
2022/09/14 05:37:42;;;;;;;;;;;14.10;99.90;;;;;;5071677;28;19920;-57
2022/09/14 05:40:08;;;;;;;;;;;14.20;99.90;;;;;;5053675;28;20294;-56
2022/09/14 05:42:34;;;;;;;;;;;14.30;99.90;;;;;;5071417;28;20003;-56
2022/09/14 05:44:59;;;;;;;;;;;14.30;99.90;;;;;;5070514;28;20389;-56
2022/09/14 05:47:27;;;;;;;;;;;14.30;99.90;;;;;;5069881;28;19925;-56
2022/09/14 05:49:53;;;;;;;;;;;14.40;99.90;;;;;;5060940;28;19960;-57
2022/09/14 05:52:19;;;;;;;;;;;14.60;99.90;;;;;;5060167;28;20373;-56
2022/09/14 05:54:45;;;;;;;;;;;14.40;99.90;;;;;;5065538;28;19970;-57
2022/09/14 05:57:10;;;;;;;;;;;14.50;99.90;;;;;;5067157;28;19920;-58
2022/09/14 05:59:36;;;;;;;;;;;14.60;99.90;;;;;;5030834;28;19924;-57
2022/09/14 06:02:01;;;;;;;;;;;14.60;99.90;;;;;;5076363;28;20003;-65
2022/09/14 06:04:27;;;;;;;;;;;14.70;99.90;;;;;;5076197;28;20004;-57
2022/09/14 06:06:53;;;;;;;;;;;14.70;99.90;;;;;;5076188;28;19946;-56
2022/09/14 06:09:18;;;;;;;;;;;14.80;99.90;;;;;;5075800;28;19927;-56
2022/09/14 06:11:44;;;;;;;;;;;14.80;99.90;;;;;;5057458;28;19920;-56
2022/09/14 06:14:09;;;;;;;;;;;14.80;99.90;;;;;;5057802;28;19924;-56
2022/09/14 06:16:35;;;;;;;;;;;14.80;99.90;;;;;;5076006;28;19920;-56
2022/09/14 06:19:01;;;;;;;;;;;14.90;99.90;;;;;;5075322;28;19924;-56
2022/09/14 06:21:30;;;;;;;;;;;15.00;99.90;;;;;;5063764;28;19924;-56
2022/09/14 06:23:56;;;;;;;;;;;15.10;99.90;;;;;;5054424;28;19928;-56
2022/09/14 06:26:21;;;;;;;;;;;15.20;99.90;;;;;;5075323;28;19920;-56
2022/09/14 06:28:48;;;;;;;;;;;15.40;99.90;;;;;;5075165;28;19931;-56
2022/09/14 06:31:14;;;;;;;;;;;15.40;99.90;;;;;;5075068;28;19926;-57
2022/09/14 06:33:46;;;;;;;;;;;15.50;99.90;;;;;;5058869;28;19924;-57
2022/09/14 06:36:14;;;;;;;;;;;15.60;99.90;;;;;;5060369;28;19920;-59
2022/09/14 06:38:40;;;;;;;;;;;15.70;99.90;;;;;;5066139;28;19925;-57
2022/09/14 06:41:08;;;;;;;;;;;15.70;99.90;;;;;;5050494;28;20317;-58
2022/09/14 06:43:34;;;;;;;;;;;15.90;99.90;;;;;;5074598;28;20289;-65
2022/09/14 06:46:01;;;;;;;;;;;15.90;99.90;;;;;;5075314;28;19975;-63
2022/09/14 06:48:28;;;;;;;;;;;15.90;99.90;;;;;;5071660;28;19974;-64
2022/09/14 06:50:53;;;;;;;;;;;16.10;99.90;;;;;;5050803;28;20267;-63
2022/09/14 06:53:19;;;;;;;;;;;16.20;99.90;;;;;;5072271;28;19928;-57
2022/09/14 06:55:45;;;;;;;;;;;16.30;99.90;;;;;;5074953;28;19924;-56
2022/09/14 06:58:11;;;;;;;;;;;16.40;99.90;;;;;;5056708;28;20381;-57
2022/09/14 07:00:36;;;;;;;;;;;16.40;99.90;;;;;;5074698;28;19934;-56
2022/09/14 07:03:02;;;;;;;;;;;16.50;99.90;;;;;;5074348;28;19924;-57
2022/09/14 07:05:29;;;;;;;;;;;16.60;99.90;;;;;;5072873;28;19939;-56
2022/09/14 07:07:55;;;;;;;;;;;16.70;99.90;;;;;;5062180;28;20438;-56
2022/09/14 07:10:21;;;;;;;;;;;16.70;99.90;;;;;;5073957;28;20058;-56
2022/09/14 07:12:46;;;;;;;;;;;16.70;99.90;;;;;;5074579;28;19963;-57
2022/09/14 07:15:12;;;;;;;;;;;16.80;99.90;;;;;;5074958;28;20359;-57
2022/09/14 07:17:38;;;;;;;;;;;16.60;99.90;;;;;;5074087;28;19924;-57
2022/09/14 07:20:04;;;;;;;;;;;16.70;99.90;;;;;;5074690;28;20033;-57
2022/09/14 07:22:33;;;;;;;;;;;16.70;99.90;;;;;;5074793;28;20391;-57
2022/09/14 07:24:58;;;;;;;;;;;16.70;99.90;;;;;;5074246;28;19920;-56
2022/09/14 07:27:24;;;;;;;;;;;16.60;99.90;;;;;;5074196;28;19927;-56
2022/09/14 07:29:50;;;;;;;;;;;16.60;99.90;;;;;;5051903;28;19979;-56
2022/09/14 07:32:15;;;;;;;;;;;16.70;99.90;;;;;;5069817;28;20109;-56
2022/09/14 07:34:41;;;;;;;;;;;16.80;99.90;;;;;;5073640;28;20008;-57
2022/09/14 07:37:06;;;;;;;;;;;17.00;99.90;;;;;;5064027;28;19920;-56
2022/09/14 07:39:32;;;;;;;;;;;17.10;99.90;;;;;;5043881;28;19928;-57
2022/09/14 07:41:58;;;;;;;;;;;17.30;99.90;;;;;;5062972;28;20401;-57
2022/09/14 07:44:23;;;;;;;;;;;17.40;99.90;;;;;;5061913;28;19932;-56
2022/09/14 07:46:49;;;;;;;;;;;17.50;99.90;;;;;;5046431;28;19927;-56
2022/09/14 07:49:15;;;;;;;;;;;17.40;99.90;;;;;;5063499;28;19931;-56
2022/09/14 07:51:40;;;;;;;;;;;17.30;99.90;;;;;;5064259;28;19921;-57
2022/09/14 07:54:07;;;;;;;;;;;17.30;99.90;;;;;;5062271;28;19936;-57
2022/09/14 07:56:33;;;;;;;;;;;17.50;99.90;;;;;;5063628;28;19928;-56
2022/09/14 07:58:59;;;;;;;;;;;17.60;99.90;;;;;;5063630;28;20393;-57
2022/09/14 08:01:26;;;;;;;;;;;17.80;99.90;;;;;;5064759;28;19924;-57
2022/09/14 08:03:52;;;;;;;;;;;17.90;99.90;;;;;;5063990;28;19930;-57
2022/09/14 08:06:19;;;;;;;;;;;18.00;99.90;;;;;;5063797;28;20053;-57
2022/09/14 08:08:46;;;;;;;;;;;18.00;99.90;;;;;;5062444;28;20328;-57
2022/09/14 08:11:16;;;;;;;;;;;17.90;99.90;;;;;;5071047;28;20401;-56
2022/09/14 08:13:47;;;;;;;;;;;18.00;99.90;;;;;;5062016;28;19951;-57
2022/09/14 08:16:13;;;;;;;;;;;18.10;99.90;;;;;;5073228;28;19920;-56
2022/09/14 08:18:38;;;;;;;;;;;18.30;99.90;;;;;;5072689;28;19924;-56
2022/09/14 08:21:04;;;;;;;;;;;18.30;99.90;;;;;;5073183;28;19924;-57
2022/09/14 08:23:30;;;;;;;;;;;18.60;99.90;;;;;;5073310;28;20388;-56
2022/09/14 08:26:00;;;;;;;;;;;18.80;99.90;;;;;;5064021;28;19946;-57
2022/09/14 08:28:25;;;;;;;;;;;18.90;99.90;;;;;;5069159;28;19976;-57
2022/09/14 08:30:51;;;;;;;;;;;18.90;99.90;;;;;;5068547;28;20709;-56
2022/09/14 08:33:17;;;;;;;;;;;19.00;99.90;;;;;;5073085;28;20355;-57
2022/09/14 08:35:43;;;;;;;;;;;19.10;99.90;;;;;;5077907;28;19921;-57
2022/09/14 08:38:09;;;;;;;;;;;19.10;99.90;;;;;;5061606;28;20003;-57
2022/09/14 08:40:42;;;;;;;;;;;19.30;99.90;;;;;;5072344;28;20341;-57
2022/09/14 08:43:08;;;;;;;;;;;19.00;99.90;;;;;;5071473;28;19924;-56
2022/09/14 08:45:34;;;;;;;;;;;19.10;99.90;;;;;;5071837;28;19928;-57
2022/09/14 08:48:00;;;;;;;;;;;19.20;99.90;;;;;;5072100;28;19990;-56
2022/09/14 08:50:26;;;;;;;;;;;19.00;99.90;;;;;;5070137;28;19928;-57
2022/09/14 08:52:53;;;;;;;;;;;19.20;99.90;;;;;;5065260;28;19920;-57
2022/09/14 08:55:39;;;;;;;;;;;19.20;99.90;;;;;;5072569;28;19921;-56
2022/09/14 08:58:16;;;;;;;;;;;19.20;99.90;;;;;;5041415;28;19920;-59
2022/09/14 09:00:52;;;;;;;;;;;19.60;99.90;;;;;;5045193;28;20279;-64
2022/09/14 09:03:27;;;;;;;;;;;19.90;99.90;;;;;;5071937;28;20371;-61
2022/09/14 09:06:08;;;;;;;;;;;20.00;99.90;;;;;;5071173;28;19921;-66
2022/09/14 09:08:34;;;;;;;;;;;20.50;99.90;;;;;;5053765;28;19931;-65
2022/09/14 09:11:00;;;;;;;;;;;20.30;99.90;;;;;;5071679;28;19924;-66
2022/09/14 09:13:29;;;;;;;;;;;20.70;99.90;;;;;;5072727;28;19916;-65
2022/09/14 09:15:57;;;;;;;;;;;20.80;99.90;;;;;;5072064;28;20327;-68
2022/09/14 09:18:46;;;;;;;;;;;21.30;99.90;;;;;;5064059;28;19968;-61
2022/09/14 09:21:14;;;;;;;;;;;21.70;99.90;;;;;;5057030;28;19927;-58
2022/09/14 09:23:40;;;;;;;;;;;21.70;99.90;;;;;;5052947;28;19979;-66
2022/09/14 09:26:10;;;;;;;;;;;22.90;99.90;;;;;;5066034;28;19960;-65
2022/09/14 09:29:04;;;;;;;;;;;22.80;99.90;;;;;;5044366;28;19924;-66
2022/09/14 09:31:43;;;;;;;;;;;22.00;99.90;;;;;;5067712;28;20019;-62
2022/09/14 09:34:11;;;;;;;;;;;22.10;99.90;;;;;;5071779;28;20014;-66
2022/09/14 09:36:38;;;;;;;;;;;22.70;99.90;;;;;;5071337;28;20332;-66
2022/09/14 09:39:04;;;;;;;;;;;23.00;99.90;;;;;;5071985;28;20038;-66
2022/09/14 09:41:30;;;;;;;;;;;23.10;99.90;;;;;;5071661;28;19942;-66
2022/09/14 09:44:02;;;;;;;;;;;23.30;99.90;;;;;;5072347;28;20011;-64
2022/09/14 09:46:32;;;;;;;;;;;23.20;99.90;;;;;;5072302;28;19921;-65
2022/09/14 09:49:01;;;;;;;;;;;22.50;99.90;;;;;;5072265;28;19970;-67
2022/09/14 09:51:27;;;;;;;;;;;23.50;99.90;;;;;;5071879;28;19924;-67
2022/09/14 09:53:54;;;;;;;;;;;23.30;99.90;;;;;;5072199;28;19920;-65
2022/09/14 09:56:22;;;;;;;;;;;23.30;99.90;;;;;;5072048;28;19931;-67
2022/09/14 09:58:50;;;;;;;;;;;23.70;99.90;;;;;;5072165;28;20015;-68
2022/09/14 10:01:33;;;;;;;;;;;24.10;99.90;;;;;;5069059;28;20046;-66
2022/09/14 10:04:00;;;;;;;;;;;24.20;99.90;;;;;;5064832;28;19924;-67
2022/09/14 10:06:26;;;;;;;;;;;23.60;99.90;;;;;;5066446;28;20446;-66
2022/09/14 10:08:52;;;;;;;;;;;23.60;99.90;;;;;;5072284;28;20011;-61
2022/09/14 10:11:27;;;;;;;;;;;23.30;99.90;;;;;;5062969;28;19964;-61
2022/09/14 10:13:52;;;;;;;;;;;22.80;99.90;;;;;;5060540;28;19982;-60
2022/09/14 10:16:19;;;;;;;;;;;22.70;99.50;;;;;;5071997;28;19965;-60
2022/09/14 10:18:46;;;;;;;;;;;22.40;99.90;;;;;;5055528;28;19951;-60
2022/09/14 10:21:12;;;;;;;;;;;22.00;99.90;;;;;;5068171;28;19921;-66
2022/09/14 10:23:38;;;;;;;;;;;22.30;99.90;;;;;;5053892;28;20390;-58
2022/09/14 10:26:13;;;;;;;;;;;22.00;99.90;;;;;;5071753;28;20025;-67
2022/09/14 10:28:39;;;;;;;;;;;22.10;99.90;;;;;;5071926;28;19974;-64
2022/09/14 10:31:29;;;;;;;;;;;22.10;99.90;;;;;;5071522;28;19971;-66
2022/09/14 10:33:56;;;;;;;;;;;22.20;99.90;;;;;;5055101;28;19974;-65
2022/09/14 10:36:29;;;;;;;;;;;22.00;99.90;;;;;;5073073;28;19964;-66
2022/09/14 10:39:14;;;;;;;;;;;22.10;99.90;;;;;;5056086;28;20323;-66
2022/09/14 10:41:48;;;;;;;;;;;22.10;99.90;;;;;;5054152;28;20008;-65
2022/09/14 10:44:32;;;;;;;;;;;22.20;99.90;;;;;;5037363;28;19921;-66
2022/09/14 10:47:14;;;;;;;;;;;22.20;99.90;;;;;;5065335;28;20717;-57
2022/09/14 10:49:58;;;;;;;;;;;22.30;99.90;;;;;;5065139;28;19999;-57
2022/09/14 10:52:30;;;;;;;;;;;22.00;99.90;;;;;;5064903;28;19921;-58
2022/09/14 10:54:55;;;;;;;;;;;21.90;99.90;;;;;;5065156;28;19982;-58
2022/09/14 10:57:33;;;;;;;;;;;22.40;99.90;;;;;;5063110;28;20301;-58
2022/09/14 11:00:11;;;;;;;;;;;21.80;99.90;;;;;;5063200;28;19932;-58
2022/09/14 11:02:40;;;;;;;;;;;21.50;99.90;;;;;;5061863;28;19935;-57
2022/09/14 11:05:08;;;;;;;;;;;21.50;99.90;;;;;;5065478;28;19920;-58
2022/09/14 11:07:52;;;;;;;;;;;21.60;99.90;;;;;;5065189;28;21144;-58
2022/09/14 11:10:32;;;;;;;;;;;21.80;99.90;;;;;;5063995;28;19931;-58
2022/09/14 11:13:01;;;;;;;;;;;21.40;99.90;;;;;;5064027;28;19921;-57
2022/09/14 11:15:45;;;;;;;;;;;21.80;99.90;;;;;;5044914;28;20298;-58
2022/09/14 11:18:22;;;;;;;;;;;21.80;99.90;;;;;;5065942;28;20378;-57
2022/09/14 11:21:02;;;;;;;;;;;21.70;99.90;;;;;;5063037;28;19924;-57
2022/09/14 11:23:37;;;;;;;;;;;23.30;99.90;;;;;;5063317;28;19921;-57
2022/09/14 11:26:06;;;;;;;;;;;23.30;99.90;;;;;;5063028;28;19925;-57
2022/09/14 11:28:36;;;;;;;;;;;25.40;99.90;;;;;;5063057;28;19927;-57
2022/09/14 11:31:05;;;;;;;;;;;23.70;98.70;;;;;;5063952;28;19960;-57
2022/09/14 11:33:36;;;;;;;;;;;22.50;99.90;;;;;;5064427;28;19921;-57
2022/09/14 11:36:22;;;;;;;;;;;21.70;99.90;;;;;;5067855;28;19925;-57
2022/09/14 11:38:51;;;;;;;;;;;21.60;99.90;;;;;;5064282;28;19950;-57
2022/09/14 11:41:20;;;;;;;;;;;21.60;99.90;;;;;;5062307;28;19950;-57
2022/09/14 11:43:48;;;;;;;;;;;21.90;99.90;;;;;;5050024;28;19920;-57
2022/09/14 11:46:17;;;;;;;;;;;21.70;99.90;;;;;;5063696;28;20424;-57
2022/09/14 11:48:50;;;;;;;;;;;22.10;99.90;;;;;;5065690;28;20378;-57
2022/09/14 11:51:22;;;;;;;;;;;23.00;99.90;;;;;;5067303;28;19920;-57
2022/09/14 11:53:49;;;;;;;;;;;23.20;99.90;;;;;;5067656;28;19920;-57
2022/09/14 11:56:22;;;;;;;;;;;24.10;99.90;;;;;;5064947;28;19927;-57
2022/09/14 11:58:48;;;;;;;;;;;23.80;99.90;;;;;;5065014;28;20313;-57
2022/09/14 12:01:27;;;;;;;;;;;23.30;98.70;;;;;;5066134;28;19921;-57
2022/09/14 12:04:03;;;;;;;;;;;23.10;98.90;;;;;;5066723;28;19921;-57
2022/09/14 12:06:28;;;;;;;;;;;22.30;98.90;;;;;;5063677;28;19920;-57
2022/09/14 12:09:21;;;;;;;;;;;22.90;99.90;;;;;;5065034;28;19916;-57
2022/09/14 12:11:47;;;;;;;;;;;23.50;99.10;;;;;;5065989;28;19924;-57
2022/09/14 12:14:22;;;;;;;;;;;24.90;99.00;;;;;;5067291;28;19943;-57
2022/09/14 12:17:06;;;;;;;;;;;24.80;97.80;;;;;;5073180;28;20379;-58
2022/09/14 12:19:33;;;;;;;;;;;25.00;98.00;;;;;;5073715;28;19927;-57
2022/09/14 12:22:17;;;;;;;;;;;24.50;97.60;;;;;;5069924;28;20017;-57
2022/09/14 12:24:43;;;;;;;;;;;24.80;98.60;;;;;;5063006;28;19924;-65
2022/09/14 12:27:20;;;;;;;;;;;24.00;98.50;;;;;;5071096;28;19920;-68
2022/09/14 12:29:45;;;;;;;;;;;24.40;98.40;;;;;;5063545;28;19920;-64
2022/09/14 12:32:25;;;;;;;;;;;23.70;98.10;;;;;;5060952;28;19928;-66
2022/09/14 12:35:16;;;;;;;;;;;24.40;98.10;;;;;;5072897;28;20302;-65
2022/09/14 12:37:42;;;;;;;;;;;24.40;98.40;;;;;;5027460;28;19924;-67
2022/09/14 12:40:20;;;;;;;;;;;23.50;98.10;;;;;;5063099;28;19931;-63
2022/09/14 12:42:45;;;;;;;;;;;24.40;98.40;;;;;;5073341;28;19947;-64
2022/09/14 12:45:30;;;;;;;;;;;24.00;97.10;;;;;;5071085;28;20366;-65
2022/09/14 12:47:56;;;;;;;;;;;23.60;98.40;;;;;;5058690;28;19920;-60
2022/09/14 12:50:21;;;;;;;;;;;22.80;98.50;;;;;;5068161;28;19924;-59
2022/09/14 12:52:53;;;;;;;;;;;23.30;99.20;;;;;;5059788;28;19932;-59
2022/09/14 12:55:18;;;;;;;;;;;23.20;98.50;;;;;;5045276;28;19932;-58
2022/09/14 12:57:44;;;;;;;;;;;23.40;98.80;;;;;;5072758;28;19920;-58
2022/09/14 13:00:18;;;;;;;;;;;22.30;98.80;;;;;;5071850;28;20460;-59
2022/09/14 13:02:53;;;;;;;;;;;22.80;99.00;;;;;;5046706;28;20317;-59
2022/09/14 13:05:23;;;;;;;;;;;22.30;99.10;;;;;;5056138;28;20274;-64
2022/09/14 13:07:49;;;;;;;;;;;22.70;99.40;;;;;;5064772;28;19999;-66
2022/09/14 13:10:19;;;;;;;;;;;22.50;99.30;;;;;;5070648;28;20014;-64
2022/09/14 13:12:46;;;;;;;;;;;22.70;99.00;;;;;;5053912;28;20382;-63
2022/09/14 13:15:20;;;;;;;;;;;22.90;99.90;;;;;;5071887;28;20378;-61
2022/09/14 13:18:02;;;;;;;;;;;23.80;99.80;;;;;;5066366;28;19973;-58
2022/09/14 13:20:32;;;;;;;;;;;23.20;98.60;;;;;;5043955;28;20007;-60
2022/09/14 13:22:58;;;;;;;;;;;22.80;99.10;;;;;;5061508;28;19965;-63
2022/09/14 13:25:27;;;;;;;;;;;22.30;99.50;;;;;;5061728;28;19920;-59
2022/09/14 13:27:54;;;;;;;;;;;22.20;99.20;;;;;;5065959;28;19935;-59
2022/09/14 13:30:21;;;;;;;;;;;22.40;99.90;;;;;;5049204;28;19920;-58
2022/09/14 13:32:48;;;;;;;;;;;22.10;99.90;;;;;;5062951;28;20033;-58
2022/09/14 13:35:15;;;;;;;;;;;22.00;99.90;;;;;;5066715;28;19923;-58
2022/09/14 13:37:41;;;;;;;;;;;21.90;99.90;;;;;;5062345;28;20015;-59
2022/09/14 13:40:07;;;;;;;;;;;21.80;99.90;;;;;;5060378;28;20396;-62
2022/09/14 13:42:33;;;;;;;;;;;21.70;99.90;;;;;;5064339;28;20386;-63
2022/09/14 13:44:59;;;;;;;;;;;21.70;99.90;;;;;;5069077;28;19931;-66
2022/09/14 13:47:25;;;;;;;;;;;21.00;99.90;;;;;;5071003;28;19920;-58
2022/09/14 13:49:52;;;;;;;;;;;21.30;99.90;;;;;;5068016;28;20346;-60
2022/09/14 13:52:25;;;;;;;;;;;21.20;99.90;;;;;;5071253;28;20023;-61
2022/09/14 13:55:08;;;;;;;;;;;20.60;99.90;;;;;;5071475;28;20011;-60
2022/09/14 13:57:34;;;;;;;;;;;20.50;99.90;;;;;;5071990;28;19934;-58
2022/09/14 14:00:15;;;;;;;;;;;20.80;99.90;;;;;;5053259;28;20024;-58
2022/09/14 14:02:51;;;;;;;;;;;21.10;99.90;;;;;;5071642;28;19959;-57
2022/09/14 14:05:23;;;;;;;;;;;21.10;99.90;;;;;;5071572;28;19970;-57
2022/09/14 14:07:50;;;;;;;;;;;21.00;99.90;;;;;;5071656;28;19968;-57
2022/09/14 14:10:23;;;;;;;;;;;20.80;99.90;;;;;;5071283;28;20546;-57
2022/09/14 14:12:49;;;;;;;;;;;21.30;99.90;;;;;;5071044;28;19947;-57
2022/09/14 14:15:17;;;;;;;;;;;21.90;99.90;;;;;;5073811;28;20351;-57
2022/09/14 14:17:43;;;;;;;;;;;22.20;99.90;;;;;;5066974;28;20358;-57
2022/09/14 14:20:28;;;;;;;;;;;21.90;99.90;;;;;;5072311;28;19950;-58
2022/09/14 14:23:12;;;;;;;;;;;22.00;99.90;;;;;;5074224;28;20015;-57
2022/09/14 14:25:50;;;;;;;;;;;22.60;99.70;;;;;;5073479;28;19927;-57